createdAt,value
2017-09-20T00:00:48.977Z,52.10
2017-09-20T00:01:51.455Z,50.78
2017-09-20T00:02:54.863Z,56.37
2017-09-20T00:03:58.564Z,50.12
2017-09-20T00:05:01.055Z,49.50
2017-09-20T00:06:03.542Z,54.03
2017-09-20T00:07:06.027Z,54.38
2017-09-20T00:08:09.279Z,51.13
2017-09-20T00:09:11.783Z,50.55
2017-09-20T00:10:15.040Z,54.78
2017-09-20T00:11:17.606Z,53.13
2017-09-20T00:12:20.084Z,50.20
2017-09-20T00:13:22.683Z,52.70
2017-09-20T00:14:25.172Z,51.17
2017-09-20T00:15:27.820Z,50.72
2017-09-20T00:16:30.382Z,50.20
2017-09-20T00:17:32.976Z,52.42
2017-09-20T00:18:36.492Z,51.17
2017-09-20T00:19:39.108Z,54.58
2017-09-20T00:20:41.614Z,49.83
2017-09-20T00:21:44.122Z,51.90
2017-09-20T00:22:48.884Z,52.78
2017-09-20T00:23:51.390Z,50.47
2017-09-20T00:24:54.743Z,55.05
2017-09-20T00:25:57.276Z,55.33
2017-09-20T00:26:59.845Z,53.87
2017-09-20T00:28:03.023Z,56.53
2017-09-20T00:29:05.520Z,61.88
2017-09-20T00:30:07.997Z,61.78
2017-09-20T00:31:10.501Z,56.78
2017-09-20T00:32:13.778Z,61.05
2017-09-20T00:33:17.132Z,53.60
2017-09-20T00:34:21.298Z,53.35
2017-09-20T00:35:23.862Z,57.10
2017-09-20T00:36:26.337Z,50.72
2017-09-20T00:37:28.851Z,58.08
2017-09-20T00:38:31.364Z,58.55
2017-09-20T00:39:33.850Z,54.17
2017-09-20T00:40:36.329Z,57.75
2017-09-20T00:41:39.596Z,55.55
2017-09-20T00:42:42.093Z,58.42
2017-09-20T00:43:44.580Z,59.92
2017-09-20T00:44:47.855Z,54.65
2017-09-20T00:45:50.315Z,47.10
2017-09-20T00:46:53.573Z,50.80
2017-09-20T00:47:57.872Z,55.25
2017-09-20T00:49:00.369Z,52.70
2017-09-20T00:50:02.968Z,51.88
2017-09-20T00:51:05.450Z,53.17
2017-09-20T00:52:08.053Z,52.00
2017-09-20T00:53:10.535Z,56.95
2017-09-20T00:54:13.848Z,53.28
2017-09-20T00:55:16.334Z,54.25
2017-09-20T00:56:18.843Z,55.83
2017-09-20T00:57:21.347Z,53.10
2017-09-20T00:58:23.823Z,54.50
2017-09-20T00:59:26.379Z,54.30
2017-09-20T01:00:28.893Z,53.80
2017-09-20T01:01:31.385Z,50.15
2017-09-20T01:02:34.763Z,56.13
2017-09-20T01:03:38.033Z,53.13
2017-09-20T01:04:41.283Z,51.25
2017-09-20T01:05:43.795Z,51.72
2017-09-20T01:06:46.394Z,47.85
2017-09-20T01:07:48.883Z,49.97
2017-09-20T01:08:51.386Z,53.97
2017-09-20T01:09:53.995Z,50.08
2017-09-20T01:10:57.424Z,54.78
2017-09-20T01:12:00.105Z,53.75
2017-09-20T01:13:02.588Z,53.72
2017-09-20T01:14:06.288Z,54.67
2017-09-20T01:15:09.902Z,54.33
2017-09-20T01:16:12.393Z,50.80
2017-09-20T01:17:14.932Z,55.78
2017-09-20T01:18:17.416Z,57.20
2017-09-20T01:19:19.889Z,59.92
2017-09-20T01:20:34.423Z,52.70
2017-09-20T01:21:48.623Z,56.00
2017-09-20T01:24:28.773Z,52.95
2017-09-20T01:25:32.036Z,52.90
2017-09-20T01:26:34.529Z,49.70
2017-09-20T01:27:37.778Z,50.63
2017-09-20T01:28:40.348Z,54.60
2017-09-20T01:29:44.348Z,56.70
2017-09-20T01:30:46.869Z,54.17
2017-09-20T01:31:49.349Z,54.65
2017-09-20T01:32:51.896Z,52.67
2017-09-20T01:33:54.370Z,53.83
2017-09-20T01:34:56.847Z,57.25
2017-09-20T01:35:59.339Z,49.35
2017-09-20T01:37:01.950Z,54.13
2017-09-20T01:38:04.436Z,56.80
2017-09-20T01:39:06.937Z,52.95
2017-09-20T01:40:09.518Z,58.67
2017-09-20T01:41:12.788Z,55.47
2017-09-20T01:42:15.305Z,54.17
2017-09-20T01:43:17.789Z,59.25
2017-09-20T01:44:20.279Z,55.15
2017-09-20T01:45:22.756Z,53.35
2017-09-20T01:46:26.020Z,56.60
2017-09-20T01:47:28.511Z,61.35
2017-09-20T01:48:30.987Z,57.28
2017-09-20T01:49:34.302Z,61.28
2017-09-20T01:50:36.913Z,61.33
2017-09-20T01:51:39.436Z,61.50
2017-09-20T01:52:41.994Z,62.17
2017-09-20T01:53:44.514Z,52.13
2017-09-20T01:54:47.079Z,57.88
2017-09-20T01:55:49.559Z,57.92
2017-09-20T01:56:52.879Z,53.38
2017-09-20T01:57:55.352Z,61.33
2017-09-20T01:58:57.929Z,59.97
2017-09-20T02:00:00.420Z,55.40
2017-09-20T02:01:02.903Z,50.95
2017-09-20T02:02:06.176Z,52.60
2017-09-20T02:03:10.181Z,51.50
2017-09-20T02:04:12.791Z,50.55
2017-09-20T02:05:15.359Z,54.80
2017-09-20T02:06:17.843Z,52.28
2017-09-20T02:07:20.337Z,50.17
2017-09-20T02:08:23.315Z,54.03
2017-09-20T02:09:25.829Z,51.53
2017-09-20T02:10:28.319Z,53.65
2017-09-20T02:11:30.876Z,55.17
2017-09-20T02:12:33.361Z,52.55
2017-09-20T02:13:35.880Z,52.25
2017-09-20T02:14:40.147Z,49.60
2017-09-20T02:15:42.628Z,53.00
2017-09-20T02:16:45.884Z,48.17
2017-09-20T02:17:48.365Z,47.55
2017-09-20T02:18:50.875Z,50.17
2017-09-20T02:19:53.351Z,51.40
2017-09-20T02:20:55.940Z,47.80
2017-09-20T02:21:58.415Z,52.05
2017-09-20T02:23:00.917Z,51.85
2017-09-20T02:24:04.167Z,47.17
2017-09-20T02:25:06.649Z,51.05
2017-09-20T02:26:09.144Z,52.67
2017-09-20T02:27:11.628Z,51.08
2017-09-20T02:28:14.168Z,45.15
2017-09-20T02:29:17.437Z,49.30
2017-09-20T02:30:20.748Z,49.05
2017-09-20T02:31:23.242Z,47.53
2017-09-20T02:32:25.715Z,48.15
2017-09-20T02:33:28.201Z,48.87
2017-09-20T02:34:30.677Z,43.97
2017-09-20T02:35:33.926Z,48.38
2017-09-20T02:36:36.440Z,45.42
2017-09-20T02:37:39.692Z,46.40
2017-09-20T02:38:42.186Z,47.72
2017-09-20T02:39:45.453Z,49.92
2017-09-20T02:40:47.951Z,47.30
2017-09-20T02:41:50.462Z,45.47
2017-09-20T02:42:52.938Z,48.58
2017-09-20T02:43:56.953Z,49.50
2017-09-20T02:45:00.216Z,48.03
2017-09-20T02:46:02.697Z,44.33
2017-09-20T02:47:05.956Z,48.95
2017-09-20T02:48:08.468Z,47.65
2017-09-20T02:49:11.703Z,44.72
2017-09-20T02:50:14.193Z,47.72
2017-09-20T02:51:16.795Z,47.38
2017-09-20T02:52:19.365Z,46.03
2017-09-20T02:53:21.929Z,47.13
2017-09-20T02:54:24.805Z,46.47
2017-09-20T02:55:27.383Z,43.33
2017-09-20T02:56:29.923Z,44.00
2017-09-20T02:57:33.165Z,43.03
2017-09-20T02:58:35.643Z,41.88
2017-09-20T02:59:38.155Z,40.53
2017-09-20T03:00:41.442Z,40.88
2017-09-20T03:01:43.939Z,39.72
2017-09-20T03:02:46.439Z,39.97
2017-09-20T03:03:49.691Z,42.08
2017-09-20T03:04:52.163Z,42.75
2017-09-20T03:05:54.782Z,40.90
2017-09-20T03:06:57.268Z,40.35
2017-09-20T03:07:59.786Z,40.92
2017-09-20T03:09:03.033Z,40.75
2017-09-20T03:10:05.510Z,39.42
2017-09-20T03:11:07.998Z,40.25
2017-09-20T03:12:11.264Z,41.40
2017-09-20T03:13:13.874Z,41.28
2017-09-20T03:14:16.475Z,39.17
2017-09-20T03:15:18.967Z,38.78
2017-09-20T03:16:21.492Z,36.97
2017-09-20T03:17:24.039Z,39.25
2017-09-20T03:18:26.545Z,37.78
2017-09-20T03:19:29.052Z,37.70
2017-09-20T03:20:32.492Z,37.63
2017-09-20T03:21:35.046Z,38.20
2017-09-20T03:22:37.562Z,40.05
2017-09-20T03:23:40.048Z,33.13
2017-09-20T03:24:42.709Z,35.33
2017-09-20T03:25:45.944Z,36.63
2017-09-20T03:26:48.446Z,36.40
2017-09-20T03:27:51.704Z,34.88
2017-09-20T03:28:54.189Z,36.95
2017-09-20T03:29:57.450Z,36.95
2017-09-20T03:31:00.066Z,35.83
2017-09-20T03:32:02.572Z,36.00
2017-09-20T03:33:05.088Z,37.88
2017-09-20T03:34:08.395Z,36.92
2017-09-20T03:35:10.908Z,35.83
2017-09-20T03:36:13.383Z,39.58
2017-09-20T03:37:16.647Z,36.35
2017-09-20T03:38:19.132Z,35.47
2017-09-20T03:39:22.419Z,37.75
2017-09-20T03:40:25.733Z,34.05
2017-09-20T03:41:28.211Z,34.50
2017-09-20T03:42:30.699Z,35.60
2017-09-20T03:43:33.329Z,33.28
2017-09-20T03:44:35.812Z,37.88
2017-09-20T03:45:38.327Z,33.63
2017-09-20T03:46:40.825Z,33.13
2017-09-20T03:47:43.396Z,35.83
2017-09-20T03:48:45.962Z,37.00
2017-09-20T03:49:48.439Z,34.97
2017-09-20T03:50:50.939Z,33.63
2017-09-20T03:51:53.423Z,33.33
2017-09-20T03:52:56.701Z,32.55
2017-09-20T03:53:59.179Z,35.40
2017-09-20T03:55:02.441Z,29.80
2017-09-20T03:56:05.003Z,31.90
2017-09-20T03:57:07.481Z,31.65
2017-09-20T03:58:09.999Z,31.62
2017-09-20T03:59:12.514Z,31.27
2017-09-20T04:00:15.429Z,30.90
2017-09-20T04:01:17.903Z,32.25
2017-09-20T04:02:20.467Z,33.15
2017-09-20T04:03:22.940Z,30.85
2017-09-20T04:04:25.612Z,31.95
2017-09-20T04:05:28.117Z,30.37
2017-09-20T04:06:30.622Z,30.60
2017-09-20T04:07:33.111Z,30.80
2017-09-20T04:08:36.600Z,29.37
2017-09-20T04:09:39.116Z,28.83
2017-09-20T04:10:42.391Z,30.37
2017-09-20T04:11:44.889Z,26.30
2017-09-20T04:12:47.456Z,28.38
2017-09-20T04:13:50.031Z,28.98
2017-09-20T04:14:52.544Z,27.98
2017-09-20T04:15:55.023Z,29.63
2017-09-20T04:16:58.873Z,30.52
2017-09-20T04:18:01.348Z,29.55
2017-09-20T04:19:03.920Z,26.92
2017-09-20T04:20:06.415Z,27.42
2017-09-20T04:21:08.923Z,26.73
2017-09-20T04:22:11.403Z,28.45
2017-09-20T04:23:13.914Z,29.33
2017-09-20T04:24:16.411Z,28.55
2017-09-20T04:25:18.895Z,30.25
2017-09-20T04:26:21.395Z,28.15
2017-09-20T04:27:24.896Z,24.77
2017-09-20T04:28:27.616Z,24.42
2017-09-20T04:29:30.113Z,28.48
2017-09-20T04:30:32.607Z,29.00
2017-09-20T04:31:35.897Z,26.80
2017-09-20T04:32:39.622Z,27.65
2017-09-20T04:33:42.139Z,26.40
2017-09-20T04:34:44.703Z,27.60
2017-09-20T04:35:47.974Z,26.42
2017-09-20T04:36:50.491Z,27.40
2017-09-20T04:37:52.967Z,30.20
2017-09-20T04:38:55.477Z,28.30
2017-09-20T04:39:58.092Z,28.92
2017-09-20T04:41:00.592Z,25.77
2017-09-20T04:42:03.115Z,28.12
2017-09-20T04:43:05.637Z,26.55
2017-09-20T04:44:08.155Z,28.38
2017-09-20T04:45:10.675Z,28.35
2017-09-20T04:46:13.184Z,26.77
2017-09-20T04:47:15.668Z,26.65
2017-09-20T04:48:18.172Z,28.25
2017-09-20T04:49:20.688Z,29.98
2017-09-20T04:50:23.168Z,28.23
2017-09-20T04:51:25.668Z,29.63
2017-09-20T04:52:28.503Z,28.83
2017-09-20T04:53:31.021Z,26.37
2017-09-20T04:54:33.618Z,29.83
2017-09-20T04:55:36.102Z,29.27
2017-09-20T04:56:38.612Z,26.17
2017-09-20T04:57:41.125Z,27.37
2017-09-20T04:58:43.615Z,29.15
2017-09-20T04:59:46.091Z,25.85
2017-09-20T05:00:54.237Z,28.12
2017-09-20T05:01:56.806Z,29.40
2017-09-20T05:02:59.327Z,28.50
2017-09-20T05:04:01.837Z,31.35
2017-09-20T05:05:04.405Z,29.23
2017-09-20T05:06:06.971Z,29.63
2017-09-20T05:07:09.495Z,26.83
2017-09-20T05:08:12.005Z,28.40
2017-09-20T05:09:14.482Z,26.95
2017-09-20T05:10:16.968Z,30.37
2017-09-20T05:11:19.549Z,31.83
2017-09-20T05:12:22.039Z,31.80
2017-09-20T05:13:25.312Z,30.85
2017-09-20T05:14:28.128Z,30.88
2017-09-20T05:15:30.651Z,28.40
2017-09-20T05:16:33.215Z,28.52
2017-09-20T05:17:35.699Z,28.75
2017-09-20T05:18:38.959Z,30.70
2017-09-20T05:19:41.454Z,28.40
2017-09-20T05:20:44.826Z,32.50
2017-09-20T05:21:48.255Z,29.00
2017-09-20T05:22:50.787Z,28.87
2017-09-20T05:23:54.114Z,31.17
2017-09-20T05:24:56.612Z,31.05
2017-09-20T05:25:59.181Z,31.17
2017-09-20T05:27:01.697Z,26.12
2017-09-20T05:28:04.286Z,29.67
2017-09-20T05:29:06.827Z,32.53
2017-09-20T05:30:12.911Z,34.35
2017-09-20T05:31:15.446Z,31.75
2017-09-20T05:32:17.955Z,24.77
2017-09-20T05:33:20.458Z,31.20
2017-09-20T05:34:23.111Z,33.92
2017-09-20T05:35:26.429Z,32.78
2017-09-20T05:36:29.115Z,32.45
2017-09-20T05:37:31.618Z,32.35
2017-09-20T05:38:34.103Z,32.88
2017-09-20T05:39:37.397Z,32.08
2017-09-20T05:40:39.881Z,33.85
2017-09-20T05:41:42.436Z,33.63
2017-09-20T05:42:45.016Z,32.80
2017-09-20T05:43:47.495Z,33.97
2017-09-20T05:44:51.027Z,33.90
2017-09-20T05:45:54.285Z,25.10
2017-09-20T05:46:56.808Z,32.92
2017-09-20T05:47:59.308Z,32.58
2017-09-20T05:49:01.791Z,34.90
2017-09-20T05:50:04.429Z,34.20
2017-09-20T05:51:07.019Z,32.70
2017-09-20T05:52:09.507Z,33.55
2017-09-20T05:53:12.774Z,30.67
2017-09-20T05:54:15.294Z,33.20
2017-09-20T05:55:24.560Z,31.10
2017-09-20T05:56:32.270Z,32.35
2017-09-20T05:57:35.611Z,27.85
2017-09-20T05:58:38.116Z,30.67
2017-09-20T05:59:40.970Z,31.65
2017-09-20T06:00:43.444Z,27.58
2017-09-20T06:01:46.896Z,29.37
2017-09-20T06:02:49.469Z,29.12
2017-09-20T06:03:52.090Z,26.65
2017-09-20T06:04:54.659Z,21.52
2017-09-20T06:05:57.963Z,32.15
2017-09-20T06:07:00.499Z,29.42
2017-09-20T06:08:03.029Z,29.65
2017-09-20T06:09:06.496Z,29.48
2017-09-20T06:10:09.057Z,24.20
2017-09-20T06:11:12.249Z,29.12
2017-09-20T06:12:14.869Z,28.77
2017-09-20T06:13:21.021Z,31.02
2017-09-20T06:14:24.355Z,29.17
2017-09-20T06:15:27.011Z,30.10
2017-09-20T06:16:30.048Z,28.85
2017-09-20T06:17:32.602Z,29.75
2017-09-20T06:18:36.323Z,32.45
2017-09-20T06:19:38.846Z,28.65
2017-09-20T06:20:41.357Z,26.85
2017-09-20T06:21:44.695Z,30.25
2017-09-20T06:22:47.194Z,28.83
2017-09-20T06:23:50.466Z,27.15
2017-09-20T06:24:53.177Z,31.02
2017-09-20T06:25:55.680Z,29.12
2017-09-20T06:26:58.270Z,25.60
2017-09-20T06:28:00.787Z,30.35
2017-09-20T06:29:03.322Z,28.95
2017-09-20T06:30:07.407Z,29.42
2017-09-20T06:31:09.980Z,29.35
2017-09-20T06:32:13.313Z,26.80
2017-09-20T06:33:15.820Z,27.17
2017-09-20T06:34:18.299Z,28.00
2017-09-20T06:35:21.571Z,28.60
2017-09-20T06:36:24.184Z,22.05
2017-09-20T06:37:26.672Z,27.05
2017-09-20T06:38:29.169Z,25.80
2017-09-20T06:39:31.643Z,27.50
2017-09-20T06:40:35.025Z,26.62
2017-09-20T06:41:37.541Z,28.45
2017-09-20T06:42:40.221Z,23.90
2017-09-20T06:43:42.705Z,27.62
2017-09-20T06:44:45.207Z,28.05
2017-09-20T06:45:48.468Z,26.73
2017-09-20T06:46:51.006Z,26.87
2017-09-20T06:47:53.498Z,27.30
2017-09-20T06:48:56.111Z,21.30
2017-09-20T06:49:58.603Z,22.60
2017-09-20T06:51:01.098Z,25.45
2017-09-20T06:52:04.376Z,25.60
2017-09-20T06:53:06.957Z,24.52
2017-09-20T06:54:09.469Z,26.15
2017-09-20T06:55:11.996Z,28.20
2017-09-20T06:56:15.280Z,27.75
2017-09-20T06:57:19.227Z,24.52
2017-09-20T06:58:21.720Z,24.83
2017-09-20T06:59:24.214Z,24.05
2017-09-20T07:00:27.570Z,23.20
2017-09-20T07:01:30.163Z,20.55
2017-09-20T07:02:33.506Z,23.52
2017-09-20T07:03:35.992Z,25.40
2017-09-20T07:04:38.604Z,25.42
2017-09-20T07:05:41.106Z,22.50
2017-09-20T07:06:43.637Z,26.25
2017-09-20T07:07:46.132Z,24.92
2017-09-20T07:08:48.644Z,25.80
2017-09-20T07:09:51.880Z,28.02
2017-09-20T07:10:54.363Z,26.70
2017-09-20T07:11:56.898Z,26.77
2017-09-20T07:12:59.371Z,24.90
2017-09-20T07:14:01.883Z,25.95
2017-09-20T07:15:05.177Z,22.30
2017-09-20T07:16:08.423Z,25.25
2017-09-20T07:17:10.937Z,25.67
2017-09-20T07:18:13.511Z,25.25
2017-09-20T07:19:15.990Z,24.65
2017-09-20T07:20:18.495Z,25.00
2017-09-20T07:21:21.008Z,25.27
2017-09-20T07:22:23.627Z,25.90
2017-09-20T07:23:26.141Z,24.55
2017-09-20T07:24:28.622Z,27.08
2017-09-20T07:25:31.224Z,27.42
2017-09-20T07:26:33.808Z,24.77
2017-09-20T07:27:36.290Z,24.52
2017-09-20T07:28:39.565Z,26.50
2017-09-20T07:29:42.977Z,25.12
2017-09-20T07:30:45.482Z,23.73
2017-09-20T07:31:48.002Z,26.83
2017-09-20T07:32:50.488Z,20.58
2017-09-20T07:33:52.978Z,23.60
2017-09-20T07:34:57.448Z,21.52
2017-09-20T07:36:00.020Z,22.55
2017-09-20T07:37:02.632Z,24.33
2017-09-20T07:38:05.167Z,24.83
2017-09-20T07:39:07.667Z,23.20
2017-09-20T07:40:10.368Z,20.62
2017-09-20T07:41:13.630Z,24.00
2017-09-20T07:42:16.136Z,24.17
2017-09-20T07:43:18.665Z,24.35
2017-09-20T07:44:21.927Z,24.65
2017-09-20T07:45:24.444Z,23.80
2017-09-20T07:46:26.922Z,24.23
2017-09-20T07:47:29.417Z,22.85
2017-09-20T07:48:32.047Z,25.30
2017-09-20T07:49:34.535Z,24.50
2017-09-20T07:50:37.021Z,22.05
2017-09-20T07:51:39.521Z,22.62
2017-09-20T07:52:42.796Z,15.05
2017-09-20T07:53:46.116Z,22.98
2017-09-20T07:54:48.597Z,24.63
2017-09-20T07:55:51.085Z,22.62
2017-09-20T07:56:53.580Z,24.27
2017-09-20T07:57:57.044Z,22.15
2017-09-20T07:58:59.537Z,19.10
2017-09-20T08:00:02.818Z,24.75
2017-09-20T08:01:06.064Z,22.45
2017-09-20T08:02:08.569Z,24.85
2017-09-20T08:03:11.851Z,20.95
2017-09-20T08:04:15.107Z,23.95
2017-09-20T08:05:17.593Z,24.23
2017-09-20T08:06:20.192Z,26.92
2017-09-20T08:07:22.679Z,24.17
2017-09-20T08:08:25.494Z,22.77
2017-09-20T08:09:28.122Z,20.00
2017-09-20T08:10:30.629Z,23.30
2017-09-20T08:11:33.185Z,23.52
2017-09-20T08:12:35.675Z,24.95
2017-09-20T08:13:38.975Z,24.23
2017-09-20T08:14:41.544Z,23.80
2017-09-20T08:15:44.068Z,22.62
2017-09-20T08:16:46.698Z,25.12
2017-09-20T08:17:49.354Z,24.15
2017-09-20T08:18:51.851Z,22.48
2017-09-20T08:19:56.951Z,22.85
2017-09-20T08:20:59.451Z,23.23
2017-09-20T08:22:02.011Z,21.48
2017-09-20T08:23:04.512Z,23.95
2017-09-20T08:24:07.784Z,22.90
2017-09-20T08:25:10.304Z,25.20
2017-09-20T08:26:12.781Z,24.33
2017-09-20T08:27:15.284Z,24.17
2017-09-20T08:28:17.759Z,25.50
2017-09-20T08:29:21.005Z,27.95
2017-09-20T08:30:23.547Z,25.90
2017-09-20T08:31:26.031Z,25.60
2017-09-20T08:32:28.532Z,23.60
2017-09-20T08:33:31.798Z,24.98
2017-09-20T08:34:34.412Z,25.75
2017-09-20T08:35:36.923Z,25.40
2017-09-20T08:36:39.424Z,24.98
2017-09-20T08:37:42.689Z,22.42
2017-09-20T08:38:46.683Z,19.10
2017-09-20T08:39:49.174Z,19.95
2017-09-20T08:40:51.760Z,24.63
2017-09-20T08:41:54.299Z,16.08
2017-09-20T08:42:57.551Z,24.12
2017-09-20T08:44:00.135Z,20.85
2017-09-20T08:45:02.715Z,24.33
2017-09-20T08:46:05.987Z,19.90
2017-09-20T08:47:08.531Z,22.35
2017-09-20T08:48:11.067Z,24.08
2017-09-20T08:49:13.568Z,24.25
2017-09-20T08:50:16.227Z,23.70
2017-09-20T08:51:18.749Z,14.10
2017-09-20T08:52:21.262Z,18.45
2017-09-20T08:53:23.811Z,22.65
2017-09-20T08:54:26.324Z,21.62
2017-09-20T08:55:28.836Z,21.48
2017-09-20T08:56:31.447Z,21.15
2017-09-20T08:57:34.058Z,19.75
2017-09-20T08:58:36.568Z,19.60
2017-09-20T08:59:39.040Z,16.37
2017-09-20T09:00:41.568Z,21.27
2017-09-20T09:01:44.081Z,15.63
2017-09-20T09:02:46.596Z,18.35
2017-09-20T09:03:49.084Z,18.05
2017-09-20T09:04:51.586Z,12.18
2017-09-20T09:05:54.081Z,18.40
2017-09-20T09:06:56.681Z,16.10
2017-09-20T09:07:59.207Z,15.75
2017-09-20T09:09:01.699Z,20.08
2017-09-20T09:10:04.208Z,22.00
2017-09-20T09:11:06.715Z,17.25
2017-09-20T09:12:09.317Z,17.70
2017-09-20T09:13:11.801Z,14.75
2017-09-20T09:14:14.442Z,17.48
2017-09-20T09:15:16.925Z,20.33
2017-09-20T09:16:19.411Z,22.27
2017-09-20T09:17:22.673Z,14.20
2017-09-20T09:18:26.670Z,22.50
2017-09-20T09:19:29.164Z,19.33
2017-09-20T09:20:32.426Z,22.83
2017-09-20T09:21:34.915Z,22.08
2017-09-20T09:22:38.224Z,20.27
2017-09-20T09:23:40.740Z,20.12
2017-09-20T09:24:43.269Z,17.08
2017-09-20T09:25:45.935Z,22.08
2017-09-20T09:26:48.416Z,23.45
2017-09-20T09:27:50.986Z,23.62
2017-09-20T09:28:53.686Z,22.77
2017-09-20T09:29:56.992Z,23.60
2017-09-20T09:31:02.282Z,21.00
2017-09-20T09:32:04.890Z,18.42
2017-09-20T09:33:10.182Z,25.40
2017-09-20T09:34:12.796Z,24.12
2017-09-20T09:35:16.297Z,17.77
2017-09-20T09:36:18.915Z,20.60
2017-09-20T09:37:21.810Z,20.67
2017-09-20T09:38:25.198Z,20.52
2017-09-20T09:39:29.862Z,19.98
2017-09-20T09:40:32.629Z,21.37
2017-09-20T09:41:35.226Z,18.80
2017-09-20T09:42:37.744Z,23.90
2017-09-20T09:43:40.226Z,24.45
2017-09-20T09:44:42.748Z,21.40
2017-09-20T09:45:46.318Z,23.58
2017-09-20T09:46:48.796Z,18.48
2017-09-20T09:47:51.303Z,18.58
2017-09-20T09:48:53.877Z,18.75
2017-09-20T09:49:56.537Z,25.25
2017-09-20T09:50:59.042Z,24.52
2017-09-20T09:52:01.524Z,24.40
2017-09-20T09:53:04.034Z,20.58
2017-09-20T09:54:06.556Z,17.75
2017-09-20T09:55:09.085Z,21.00
2017-09-20T09:56:11.675Z,15.90
2017-09-20T09:57:14.347Z,23.83
2017-09-20T09:58:16.920Z,25.00
2017-09-20T09:59:19.416Z,23.10
2017-09-20T10:00:22.673Z,24.90
2017-09-20T10:01:25.282Z,21.83
2017-09-20T10:02:27.781Z,22.40
2017-09-20T10:03:30.264Z,20.65
2017-09-20T10:04:32.766Z,19.95
2017-09-20T10:05:36.056Z,19.87
2017-09-20T10:06:38.551Z,21.98
2017-09-20T10:07:41.060Z,20.37
2017-09-20T10:08:43.544Z,17.67
2017-09-20T10:09:46.798Z,22.55
2017-09-20T10:10:49.288Z,18.92
2017-09-20T10:11:52.535Z,20.00
2017-09-20T10:12:55.056Z,20.88
2017-09-20T10:13:57.732Z,19.65
2017-09-20T10:15:00.225Z,21.25
2017-09-20T10:16:02.715Z,21.37
2017-09-20T10:17:05.216Z,21.02
2017-09-20T10:18:07.771Z,23.00
2017-09-20T10:19:11.042Z,21.42
2017-09-20T10:20:14.420Z,20.85
2017-09-20T10:21:17.767Z,17.65
2017-09-20T10:22:20.285Z,19.33
2017-09-20T10:23:23.547Z,23.12
2017-09-20T10:24:26.655Z,22.37
2017-09-20T10:25:29.974Z,23.52
2017-09-20T10:26:32.471Z,24.95
2017-09-20T10:27:35.096Z,19.87
2017-09-20T10:28:37.689Z,20.02
2017-09-20T10:29:40.299Z,25.80
2017-09-20T10:30:43.600Z,24.15
2017-09-20T10:31:46.089Z,22.42
2017-09-20T10:32:48.576Z,24.73
2017-09-20T10:33:51.083Z,23.33
2017-09-20T10:34:58.500Z,22.33
2017-09-20T10:36:01.081Z,19.35
2017-09-20T10:37:03.620Z,21.15
2017-09-20T10:38:06.116Z,24.30
2017-09-20T10:39:08.605Z,22.42
2017-09-20T10:40:11.102Z,21.50
2017-09-20T10:41:14.371Z,20.80
2017-09-20T10:42:17.763Z,23.00
2017-09-20T10:43:21.018Z,20.45
2017-09-20T10:44:23.543Z,16.92
2017-09-20T10:45:30.505Z,21.12
2017-09-20T10:46:36.509Z,20.85
2017-09-20T10:47:39.800Z,15.63
2017-09-20T10:48:42.312Z,21.45
2017-09-20T10:49:44.781Z,20.77
2017-09-20T10:50:47.265Z,21.42
2017-09-20T10:51:49.783Z,19.65
2017-09-20T10:52:52.328Z,23.35
2017-09-20T10:53:55.666Z,18.20
2017-09-20T10:54:58.158Z,20.08
2017-09-20T10:56:00.644Z,21.35
2017-09-20T10:57:04.026Z,21.37
2017-09-20T10:58:07.358Z,18.20
2017-09-20T10:59:09.965Z,19.17
2017-09-20T11:00:12.524Z,17.83
2017-09-20T11:01:15.137Z,19.80
2017-09-20T11:02:17.636Z,19.12
2017-09-20T11:03:21.123Z,15.43
2017-09-20T11:04:23.615Z,16.73
2017-09-20T11:05:26.293Z,16.80
2017-09-20T11:06:28.791Z,19.15
2017-09-20T11:07:31.281Z,20.02
2017-09-20T11:08:33.764Z,18.95
2017-09-20T11:09:36.271Z,17.10
2017-09-20T11:10:39.799Z,18.90
2017-09-20T11:11:42.312Z,15.55
2017-09-20T11:12:45.494Z,18.92
2017-09-20T11:13:48.001Z,17.37
2017-09-20T11:14:50.595Z,15.60
2017-09-20T11:15:53.104Z,18.77
2017-09-20T11:16:56.364Z,17.08
2017-09-20T11:17:58.864Z,17.70
2017-09-20T11:19:02.138Z,16.58
2017-09-20T11:20:05.454Z,18.60
2017-09-20T11:21:08.081Z,17.85
2017-09-20T11:22:10.590Z,15.93
2017-09-20T11:23:13.178Z,17.50
2017-09-20T11:24:15.692Z,20.35
2017-09-20T11:25:19.215Z,17.58
2017-09-20T11:26:21.739Z,18.80
2017-09-20T11:27:25.018Z,18.45
2017-09-20T11:28:27.519Z,16.65
2017-09-20T11:29:29.997Z,15.45
2017-09-20T11:30:32.494Z,14.00
2017-09-20T11:31:35.026Z,16.70
2017-09-20T11:32:38.411Z,16.23
2017-09-20T11:33:43.060Z,15.82
2017-09-20T11:34:45.550Z,15.85
2017-09-20T11:35:48.841Z,15.20
2017-09-20T11:36:52.108Z,16.67
2017-09-20T11:37:54.617Z,15.77
2017-09-20T11:38:57.207Z,16.25
2017-09-20T11:39:59.709Z,14.70
2017-09-20T11:41:02.833Z,13.50
2017-09-20T11:42:06.170Z,16.30
2017-09-20T11:43:08.684Z,18.10
2017-09-20T11:44:11.214Z,14.73
2017-09-20T11:45:14.494Z,14.77
2017-09-20T11:46:18.902Z,14.90
2017-09-20T11:47:21.419Z,15.48
2017-09-20T11:48:24.077Z,16.20
2017-09-20T11:49:26.606Z,13.25
2017-09-20T11:50:29.087Z,15.02
2017-09-20T11:51:32.378Z,15.90
2017-09-20T11:52:35.730Z,14.10
2017-09-20T11:53:38.278Z,14.95
2017-09-20T11:54:41.014Z,15.13
2017-09-20T11:55:43.689Z,15.85
2017-09-20T11:56:46.190Z,16.15
2017-09-20T11:57:48.695Z,12.98
2017-09-20T11:58:51.958Z,14.20
2017-09-20T11:59:54.530Z,16.00
2017-09-20T12:00:57.793Z,13.45
2017-09-20T12:02:00.305Z,13.20
2017-09-20T12:03:03.555Z,13.15
2017-09-20T12:04:06.086Z,13.80
2017-09-20T12:05:08.589Z,12.90
2017-09-20T12:06:11.066Z,12.77
2017-09-20T12:07:14.439Z,15.00
2017-09-20T12:08:16.959Z,12.15
2017-09-20T12:09:24.284Z,13.45
2017-09-20T12:10:26.759Z,12.90
2017-09-20T12:11:30.581Z,14.60
2017-09-20T12:12:33.096Z,14.10
2017-09-20T12:13:35.586Z,14.20
2017-09-20T12:14:39.001Z,13.10
2017-09-20T12:15:41.536Z,11.70
2017-09-20T12:16:44.059Z,12.57
2017-09-20T12:17:46.539Z,13.65
2017-09-20T12:18:49.035Z,14.07
2017-09-20T12:19:52.352Z,12.68
2017-09-20T12:20:54.864Z,12.85
2017-09-20T12:21:57.393Z,13.02
2017-09-20T12:22:59.902Z,13.88
2017-09-20T12:24:02.410Z,11.90
2017-09-20T12:25:04.969Z,12.48
2017-09-20T12:26:07.567Z,11.95
2017-09-20T12:27:10.081Z,14.85
2017-09-20T12:28:13.601Z,12.32
2017-09-20T12:29:16.204Z,12.85
2017-09-20T12:30:18.696Z,15.30
2017-09-20T12:31:21.198Z,13.07
2017-09-20T12:32:23.700Z,12.65
2017-09-20T12:33:26.331Z,13.90
2017-09-20T12:34:28.832Z,14.95
2017-09-20T12:35:31.425Z,16.42
2017-09-20T12:36:34.004Z,12.35
2017-09-20T12:37:37.279Z,16.02
2017-09-20T12:38:39.783Z,12.70
2017-09-20T12:39:42.273Z,15.07
2017-09-20T12:40:44.792Z,13.45
2017-09-20T12:41:48.027Z,13.82
2017-09-20T12:42:50.568Z,14.93
2017-09-20T12:43:53.232Z,14.20
2017-09-20T12:44:56.116Z,11.60
2017-09-20T12:45:58.679Z,14.70
2017-09-20T12:47:01.220Z,13.93
2017-09-20T12:48:04.463Z,14.13
2017-09-20T12:49:06.955Z,13.35
2017-09-20T12:50:09.612Z,13.50
2017-09-20T12:51:13.101Z,14.52
2017-09-20T12:52:16.484Z,13.23
2017-09-20T12:53:19.011Z,12.95
2017-09-20T12:54:21.579Z,14.02
2017-09-20T12:55:24.129Z,13.45
2017-09-20T12:56:26.686Z,14.70
2017-09-20T12:57:35.186Z,14.05
2017-09-20T12:58:37.786Z,12.77
2017-09-20T12:59:40.273Z,14.20
2017-09-20T13:00:43.049Z,13.25
2017-09-20T13:01:45.594Z,13.55
2017-09-20T13:02:48.151Z,15.80
2017-09-20T13:03:50.820Z,14.38
2017-09-20T13:04:53.313Z,14.65
2017-09-20T13:05:55.868Z,13.98
2017-09-20T13:06:58.375Z,16.58
2017-09-20T13:08:00.904Z,13.13
2017-09-20T13:09:03.429Z,13.20
2017-09-20T13:10:06.744Z,12.82
2017-09-20T13:11:09.275Z,13.18
2017-09-20T13:12:12.538Z,13.25
2017-09-20T13:13:15.424Z,14.98
2017-09-20T13:14:18.700Z,15.57
2017-09-20T13:15:21.234Z,14.45
2017-09-20T13:16:24.480Z,15.07
2017-09-20T13:17:26.985Z,15.35
2017-09-20T13:18:29.515Z,12.50
2017-09-20T13:19:32.018Z,15.73
2017-09-20T13:20:34.505Z,12.37
2017-09-20T13:21:37.016Z,15.95
2017-09-20T13:22:39.495Z,15.52
2017-09-20T13:23:42.044Z,13.48
2017-09-20T13:24:44.521Z,14.90
2017-09-20T13:25:47.889Z,13.50
2017-09-20T13:26:50.556Z,16.05
2017-09-20T13:27:53.062Z,14.35
2017-09-20T13:28:55.567Z,14.85
2017-09-20T13:29:59.695Z,16.17
2017-09-20T13:31:02.264Z,15.98